createdAt,value
2023-01-25T00:01:36.670Z,102833.90
2023-01-25T00:04:09.091Z,102826.73
2023-01-25T00:06:41.773Z,102825.46
2023-01-25T00:09:15.551Z,102823.54
2023-01-25T00:11:48.427Z,102818.67
2023-01-25T00:14:20.953Z,102817.86
2023-01-25T00:16:53.848Z,102815.70
2023-01-25T00:19:26.276Z,102814.11
2023-01-25T00:22:00.884Z,102815.05
2023-01-25T00:24:31.691Z,102822.70
2023-01-25T00:27:04.784Z,102820.89
2023-01-25T00:29:37.467Z,102825.14
2023-01-25T00:32:34.536Z,102829.39
2023-01-25T00:35:10.391Z,102824.58
2023-01-25T00:37:49.966Z,102821.71
2023-01-25T00:40:23.573Z,102825.36
2023-01-25T00:42:56.494Z,102810.17
2023-01-25T00:45:29.762Z,102829.66
2023-01-25T00:48:02.492Z,102829.39
2023-01-25T00:50:37.791Z,102812.45
2023-01-25T00:53:11.056Z,102822.80
2023-01-25T00:55:43.448Z,102830.98
2023-01-25T00:58:15.980Z,102833.47
2023-01-25T01:00:48.521Z,102833.01
2023-01-25T01:03:21.649Z,102826.55
2023-01-25T01:06:02.895Z,102827.73
2023-01-25T01:08:37.705Z,102828.05
2023-01-25T01:11:09.997Z,102827.39
2023-01-25T01:13:42.942Z,102828.83
2023-01-25T01:16:16.357Z,102828.20
2023-01-25T01:18:51.170Z,102822.15
2023-01-25T01:21:24.083Z,102827.49
2023-01-25T01:23:57.135Z,102822.42
2023-01-25T01:26:29.702Z,102820.83
2023-01-25T01:29:02.389Z,102820.83
2023-01-25T01:31:35.149Z,102820.23
2023-01-25T01:34:16.518Z,102814.27
2023-01-25T01:36:49.163Z,102817.08
2023-01-25T01:39:22.005Z,102820.33
2023-01-25T01:41:54.434Z,102814.52
2023-01-25T01:44:45.885Z,102812.55
2023-01-25T01:47:23.130Z,102812.06
2023-01-25T01:50:01.174Z,102811.23
2023-01-25T01:52:38.342Z,102814.36
2023-01-25T01:55:15.148Z,102812.65
2023-01-25T01:57:52.837Z,102809.89
2023-01-25T02:00:28.280Z,102807.80
2023-01-25T02:03:02.531Z,102788.33
2023-01-25T02:05:45.369Z,102796.71
2023-01-25T02:08:18.465Z,102781.15
2023-01-25T02:10:52.269Z,102795.08
2023-01-25T02:13:25.148Z,102796.78
2023-01-25T02:15:58.101Z,102791.86
2023-01-25T02:18:31.531Z,102790.55
2023-01-25T02:21:05.050Z,102783.43
2023-01-25T02:23:48.639Z,102782.16
2023-01-25T02:26:23.380Z,102781.49
2023-01-25T02:29:02.174Z,102778.58
2023-01-25T02:31:34.954Z,102779.95
2023-01-25T02:34:07.914Z,102776.52
2023-01-25T02:36:40.694Z,102776.16
2023-01-25T02:39:20.094Z,102755.17
2023-01-25T02:41:52.856Z,102770.90
2023-01-25T02:44:27.976Z,102767.42
2023-01-25T02:47:02.030Z,102770.41
2023-01-25T02:49:38.284Z,102750.48
2023-01-25T02:52:13.275Z,102758.77
2023-01-25T02:54:45.803Z,102752.65
2023-01-25T02:57:18.727Z,102753.85
2023-01-25T02:59:51.148Z,102751.65
2023-01-25T03:02:24.191Z,102748.02
2023-01-25T03:04:57.599Z,102745.46
2023-01-25T03:07:30.348Z,102744.38
2023-01-25T03:10:03.380Z,102731.80
2023-01-25T03:12:35.889Z,102725.07
2023-01-25T03:15:11.275Z,102722.70
2023-01-25T03:17:43.759Z,102721.36
2023-01-25T03:20:17.640Z,102720.27
2023-01-25T03:22:50.849Z,102714.58
2023-01-25T03:25:23.618Z,102710.23
2023-01-25T03:28:04.540Z,102708.08
2023-01-25T03:30:37.036Z,102710.17
2023-01-25T03:33:10.347Z,102711.95
2023-01-25T03:35:43.046Z,102703.56
2023-01-25T03:38:16.425Z,102702.67
2023-01-25T03:40:49.811Z,102698.42
2023-01-25T03:43:22.475Z,102697.39
2023-01-25T03:46:01.684Z,102695.61
2023-01-25T03:48:35.155Z,102671.25
2023-01-25T03:51:07.856Z,102688.39
2023-01-25T03:53:41.887Z,102681.27
2023-01-25T03:56:20.597Z,102679.17
2023-01-25T03:59:16.402Z,102671.23
2023-01-25T04:01:51.959Z,102668.48
2023-01-25T04:04:24.849Z,102669.41
2023-01-25T04:06:58.926Z,102664.06
2023-01-25T04:09:31.628Z,102662.31
2023-01-25T04:12:05.711Z,102663.30
2023-01-25T04:14:44.566Z,102661.09
2023-01-25T04:17:21.775Z,102659.44
2023-01-25T04:19:58.108Z,102655.18
2023-01-25T04:22:33.152Z,102658.95
2023-01-25T04:25:06.306Z,102653.04
2023-01-25T04:27:39.014Z,102650.55
2023-01-25T04:30:16.307Z,102650.06
2023-01-25T04:32:49.969Z,102641.23
2023-01-25T04:35:34.890Z,102634.90
2023-01-25T04:38:07.923Z,102640.08
2023-01-25T04:40:44.858Z,102635.06
2023-01-25T04:43:21.057Z,102630.86
2023-01-25T04:45:55.566Z,102623.70
2023-01-25T04:48:33.835Z,102626.84
2023-01-25T04:51:09.553Z,102623.98
2023-01-25T04:53:42.117Z,102617.59
2023-01-25T04:56:15.643Z,102621.39
2023-01-25T04:58:58.493Z,102616.44
2023-01-25T05:01:34.555Z,102613.41
2023-01-25T05:04:09.130Z,102618.31
2023-01-25T05:06:45.023Z,102616.45
2023-01-25T05:09:18.508Z,102617.42
2023-01-25T05:11:51.456Z,102619.52
2023-01-25T05:14:29.581Z,102617.71
2023-01-25T05:17:03.464Z,102616.21
2023-01-25T05:19:36.860Z,102612.73
2023-01-25T05:22:15.897Z,102615.66
2023-01-25T05:24:52.258Z,102612.73
2023-01-25T05:27:25.169Z,102608.04
2023-01-25T05:30:00.460Z,102605.51
2023-01-25T05:32:59.436Z,102601.21
2023-01-25T05:35:31.989Z,102599.11
2023-01-25T05:38:04.795Z,102597.02
2023-01-25T05:40:37.269Z,102595.20
2023-01-25T05:43:09.855Z,102587.10
2023-01-25T05:45:42.302Z,102548.82
2023-01-25T05:48:16.275Z,102586.44
2023-01-25T05:50:48.828Z,102594.44
2023-01-25T05:53:29.735Z,102594.22
2023-01-25T05:56:08.542Z,102592.40
2023-01-25T05:58:41.365Z,102590.58
2023-01-25T06:01:13.769Z,102591.08
2023-01-25T06:03:51.507Z,102590.48
2023-01-25T06:06:24.605Z,102592.01
2023-01-25T06:08:58.294Z,102591.02
2023-01-25T06:11:31.275Z,102570.08
2023-01-25T06:14:05.763Z,102585.54
2023-01-25T06:16:38.812Z,102585.38
2023-01-25T06:19:31.060Z,102584.84
2023-01-25T06:22:27.736Z,102580.54
2023-01-25T06:25:00.251Z,102547.39
2023-01-25T06:27:32.856Z,102588.26
2023-01-25T06:30:06.581Z,102589.63
2023-01-25T06:32:40.422Z,102588.44
2023-01-25T06:35:13.342Z,102589.70
2023-01-25T06:38:04.908Z,102587.11
2023-01-25T06:40:37.524Z,102580.66
2023-01-25T06:43:11.220Z,102581.66
2023-01-25T06:45:44.095Z,102583.30
2023-01-25T06:48:17.357Z,102578.52
2023-01-25T06:50:56.823Z,102580.93
2023-01-25T06:53:31.519Z,102578.23
2023-01-25T06:56:06.063Z,102576.58
2023-01-25T06:58:38.736Z,102572.66
2023-01-25T07:01:16.230Z,102575.80
2023-01-25T07:03:52.568Z,102576.41
2023-01-25T07:06:25.984Z,102576.08
2023-01-25T07:09:02.719Z,102579.00
2023-01-25T07:11:35.294Z,102577.34
2023-01-25T07:14:08.234Z,102574.02
2023-01-25T07:16:40.855Z,102572.38
2023-01-25T07:19:14.617Z,102569.31
2023-01-25T07:21:47.415Z,102560.38
2023-01-25T07:24:21.105Z,102558.77
2023-01-25T07:26:53.593Z,102541.47
2023-01-25T07:29:26.977Z,102554.64
2023-01-25T07:32:00.068Z,102556.52
2023-01-25T07:34:32.945Z,102563.41
2023-01-25T07:37:05.549Z,102560.70
2023-01-25T07:39:38.633Z,102559.63
2023-01-25T07:42:11.363Z,102546.60
2023-01-25T07:44:43.864Z,102546.63
2023-01-25T07:47:18.673Z,102550.46
2023-01-25T07:49:51.220Z,102546.51
2023-01-25T07:52:23.616Z,102543.48
2023-01-25T07:54:55.899Z,102546.30
2023-01-25T07:57:28.853Z,102540.41
2023-01-25T08:00:01.893Z,102538.20
2023-01-25T08:02:45.559Z,102524.15
2023-01-25T08:05:18.465Z,102520.73
2023-01-25T08:07:51.263Z,102516.54
2023-01-25T08:10:23.684Z,102519.12
2023-01-25T08:12:56.109Z,102511.46
2023-01-25T08:15:28.614Z,102511.24
2023-01-25T08:18:03.662Z,102512.66
2023-01-25T08:20:37.768Z,102510.86
2023-01-25T08:23:10.190Z,102512.39
2023-01-25T08:25:42.795Z,102516.20
2023-01-25T08:28:15.448Z,102515.92
2023-01-25T08:30:56.806Z,102496.99
2023-01-25T08:33:30.418Z,102510.55
2023-01-25T08:36:02.833Z,102506.29
2023-01-25T08:38:36.011Z,102491.55
2023-01-25T08:41:12.931Z,102483.61
2023-01-25T08:43:46.052Z,102502.16
2023-01-25T08:46:19.420Z,102502.16
2023-01-25T08:48:54.474Z,102503.27
2023-01-25T08:51:28.538Z,102500.42
2023-01-25T08:54:05.532Z,102495.79
2023-01-25T08:56:39.416Z,102490.23
2023-01-25T08:59:14.346Z,102487.00
2023-01-25T09:01:46.820Z,102486.92
2023-01-25T09:04:19.681Z,102482.20
2023-01-25T09:06:51.957Z,102478.51
2023-01-25T09:09:25.075Z,102475.37
2023-01-25T09:11:57.639Z,102469.27
2023-01-25T09:14:30.332Z,102463.91
2023-01-25T09:17:02.796Z,102464.34
2023-01-25T09:19:35.470Z,102470.72
2023-01-25T09:22:07.829Z,102468.42
2023-01-25T09:24:40.281Z,102450.21
2023-01-25T09:27:12.680Z,102465.95
2023-01-25T09:30:00.042Z,102463.08
2023-01-25T09:32:34.257Z,102465.78
2023-01-25T09:35:07.964Z,102467.80
2023-01-25T09:37:40.437Z,102467.11
2023-01-25T09:40:22.380Z,102457.83
2023-01-25T09:43:01.866Z,102457.94
2023-01-25T09:45:38.301Z,102458.13
2023-01-25T09:48:22.517Z,102456.33
2023-01-25T09:51:12.094Z,102451.20
2023-01-25T09:53:51.706Z,102445.60
2023-01-25T09:56:26.717Z,102439.83
2023-01-25T09:59:04.077Z,102442.20
2023-01-25T10:01:45.917Z,102437.20
2023-01-25T10:04:22.606Z,102429.43
2023-01-25T10:07:01.541Z,102429.48
2023-01-25T10:09:42.713Z,102424.82
2023-01-25T10:12:21.440Z,102425.69
2023-01-25T10:14:54.043Z,102423.89
2023-01-25T10:31:53.924Z,102397.27
2023-01-25T10:34:34.101Z,102390.69
2023-01-25T10:37:18.279Z,102391.79
2023-01-25T10:39:57.786Z,102394.70
2023-01-25T10:42:34.950Z,102395.41
2023-01-25T10:45:13.881Z,102389.31
2023-01-25T10:47:51.853Z,102385.61
2023-01-25T10:50:46.547Z,102383.30
2023-01-25T10:53:27.923Z,102379.77
2023-01-25T10:56:04.993Z,102374.23
2023-01-25T10:58:40.165Z,102355.31
2023-01-25T11:01:25.708Z,102373.59
2023-01-25T11:03:58.592Z,102369.73
2023-01-25T11:06:39.778Z,102366.12
2023-01-25T11:12:22.193Z,102351.59
2023-01-25T11:14:54.665Z,102346.19
2023-01-25T11:17:30.336Z,102342.67
2023-01-25T11:20:24.365Z,102336.66
2023-01-25T11:22:58.697Z,102332.36
2023-01-25T11:25:33.618Z,102325.61
2023-01-25T11:28:20.559Z,102319.70
2023-01-25T11:30:54.279Z,102300.75
2023-01-25T11:33:30.434Z,102317.52
2023-01-25T11:36:21.225Z,102299.01
2023-01-25T11:39:18.115Z,102301.20
2023-01-25T11:42:03.103Z,102283.50
2023-01-25T11:45:03.411Z,102302.95
2023-01-25T11:47:49.711Z,102291.64
2023-01-25T11:50:29.294Z,102286.61
2023-01-25T11:53:24.083Z,102282.84
2023-01-25T11:56:06.081Z,102275.16
2023-01-25T11:59:00.852Z,102271.58
2023-01-25T12:01:40.546Z,102264.69
2023-01-25T12:04:36.877Z,102262.39
2023-01-25T12:07:16.319Z,102257.11
2023-01-25T12:10:01.799Z,102248.39
2023-01-25T12:12:45.977Z,102245.30
2023-01-25T12:15:42.519Z,102241.78
2023-01-25T12:18:56.574Z,102232.14
2023-01-25T12:21:44.650Z,102224.69
2023-01-25T12:24:36.613Z,102220.92
2023-01-25T12:27:25.758Z,102219.96
2023-01-25T12:30:04.547Z,102212.77
2023-01-25T12:32:45.602Z,102205.34
2023-01-25T12:35:29.766Z,102199.22
2023-01-25T12:38:06.239Z,102193.21
2023-01-25T12:40:52.982Z,102189.57
2023-01-25T12:43:31.557Z,102187.20
2023-01-25T12:46:10.701Z,102186.38
2023-01-25T12:48:48.630Z,102164.11
2023-01-25T12:51:24.213Z,102169.52
2023-01-25T12:53:59.439Z,102170.34
2023-01-25T12:56:44.053Z,102160.53
2023-01-25T12:59:25.063Z,102155.73
2023-01-25T13:02:03.996Z,102152.39
2023-01-25T13:04:54.413Z,102139.95
2023-01-25T13:07:32.219Z,102149.11
2023-01-25T13:10:15.082Z,102142.34
2023-01-25T13:13:00.689Z,102140.05
2023-01-25T13:15:42.079Z,102140.49
2023-01-25T13:18:40.592Z,102135.18
2023-01-25T13:21:34.693Z,102136.02
2023-01-25T13:24:20.333Z,102121.16
2023-01-25T13:27:24.507Z,102125.16
2023-01-25T13:30:01.698Z,102123.95
2023-01-25T13:33:14.641Z,102117.99
2023-01-25T13:35:47.406Z,102116.34
2023-01-25T13:38:30.970Z,102109.13
2023-01-25T13:41:12.184Z,102104.29
2023-01-25T13:43:56.904Z,102095.32
2023-01-25T13:46:29.766Z,102092.58
2023-01-25T13:49:08.553Z,102093.15
2023-01-25T13:51:43.183Z,102088.46
2023-01-25T13:54:19.621Z,102081.44
2023-01-25T13:57:06.261Z,102073.75
2023-01-25T13:59:38.695Z,102075.11
2023-01-25T14:02:20.039Z,102079.36
2023-01-25T14:04:54.180Z,102061.52
2023-01-25T14:07:33.114Z,102074.98
2023-01-25T14:10:10.556Z,102070.23
2023-01-25T14:12:45.033Z,102066.65
2023-01-25T14:15:26.322Z,102056.14
2023-01-25T14:18:17.010Z,102056.96
2023-01-25T14:20:50.911Z,102055.39
2023-01-25T14:23:28.567Z,102047.29
2023-01-25T14:26:02.236Z,102046.05
2023-01-25T14:28:34.817Z,102043.05
2023-01-25T14:31:24.876Z,102035.73
2023-01-25T14:33:58.985Z,102031.02
2023-01-25T14:36:34.508Z,102023.62
2023-01-25T14:39:18.594Z,102010.20
2023-01-25T14:42:00.893Z,102017.73
2023-01-25T14:44:36.244Z,102022.51
2023-01-25T14:47:23.682Z,102016.52
2023-01-25T14:49:56.376Z,102010.81
2023-01-25T14:52:30.635Z,102007.63
2023-01-25T14:55:03.359Z,102008.48
2023-01-25T14:57:40.876Z,102007.98
2023-01-25T15:00:24.723Z,102002.90
2023-01-25T15:02:59.202Z,101998.27
2023-01-25T15:05:34.260Z,101995.94
2023-01-25T15:08:32.824Z,101993.83
2023-01-25T15:11:38.817Z,101985.67
2023-01-25T15:14:20.281Z,101983.91
2023-01-25T15:16:52.719Z,101982.80
2023-01-25T15:19:27.758Z,101977.35
2023-01-25T15:22:01.654Z,101975.92
2023-01-25T15:24:35.911Z,101971.61
2023-01-25T15:27:12.835Z,101965.81
2023-01-25T15:29:45.199Z,101961.57
2023-01-25T15:32:22.771Z,101962.64
2023-01-25T15:34:56.748Z,101962.52
2023-01-25T15:37:29.202Z,101959.90
2023-01-25T15:40:01.797Z,101961.57
2023-01-25T15:42:34.529Z,101960.38
2023-01-25T15:45:10.253Z,101953.27
2023-01-25T15:47:43.047Z,101948.00
2023-01-25T15:50:20.703Z,101942.59
2023-01-25T15:52:57.251Z,101943.63
2023-01-25T15:55:33.353Z,101938.51
2023-01-25T15:58:11.427Z,101929.11
2023-01-25T16:00:44.875Z,101930.48
2023-01-25T16:03:18.172Z,101913.30
2023-01-25T16:05:52.186Z,101926.73
2023-01-25T16:08:24.584Z,101927.88
2023-01-25T16:10:57.499Z,101923.23
2023-01-25T16:13:31.683Z,101916.13
2023-01-25T16:16:20.760Z,101915.09
2023-01-25T16:19:02.436Z,101914.55
2023-01-25T16:21:37.980Z,101913.99
2023-01-25T16:24:13.803Z,101910.16
2023-01-25T16:26:51.183Z,101903.85
2023-01-25T16:29:23.978Z,101896.15
2023-01-25T16:31:56.816Z,101895.98
2023-01-25T16:34:29.462Z,101900.27
2023-01-25T16:37:03.256Z,101898.79
2023-01-25T16:39:35.867Z,101900.15
2023-01-25T16:42:10.335Z,101896.83
2023-01-25T16:44:42.774Z,101893.95
2023-01-25T16:47:17.782Z,101892.34
2023-01-25T16:49:50.265Z,101891.61
2023-01-25T16:52:24.967Z,101886.46
2023-01-25T16:54:59.572Z,101886.73
2023-01-25T16:57:34.702Z,101880.70
2023-01-25T17:00:10.854Z,101883.48
2023-01-25T17:02:58.299Z,101881.76
2023-01-25T17:05:50.925Z,101881.10
2023-01-25T17:08:40.445Z,101879.16
2023-01-25T17:11:13.320Z,101876.13
2023-01-25T17:13:48.385Z,101871.08
2023-01-25T17:16:22.052Z,101867.73
2023-01-25T17:19:00.131Z,101866.63
2023-01-25T17:21:37.167Z,101865.15
2023-01-25T17:24:29.175Z,101856.73
2023-01-25T17:27:02.318Z,101847.21
2023-01-25T17:29:35.638Z,101845.09
2023-01-25T17:32:08.256Z,101826.27
2023-01-25T17:35:00.361Z,101840.70
2023-01-25T17:37:42.948Z,101834.69
2023-01-25T17:40:18.628Z,101828.54
2023-01-25T17:42:52.393Z,101828.15
2023-01-25T17:45:25.114Z,101827.30
2023-01-25T17:47:58.915Z,101829.71
2023-01-25T17:50:31.471Z,101833.98
2023-01-25T17:53:05.447Z,101809.11
2023-01-25T17:55:39.361Z,101824.63
2023-01-25T17:58:12.152Z,101818.98
2023-01-25T18:00:44.852Z,101819.32
2023-01-25T18:03:17.650Z,101793.36
2023-01-25T18:05:51.086Z,101816.66
2023-01-25T18:08:27.419Z,101811.78
2023-01-25T18:11:08.952Z,101808.48
2023-01-25T18:13:43.558Z,101807.14
2023-01-25T18:16:18.764Z,101804.92
2023-01-25T18:18:52.876Z,101809.97
2023-01-25T18:21:30.230Z,101806.39
2023-01-25T18:24:05.677Z,101806.19
2023-01-25T18:26:41.009Z,101804.80
2023-01-25T18:29:41.440Z,101804.09
2023-01-25T18:32:14.591Z,101796.50
2023-01-25T18:34:48.298Z,101788.61
2023-01-25T18:37:29.597Z,101784.05
2023-01-25T18:40:02.069Z,101782.30
2023-01-25T18:42:35.478Z,101778.34
2023-01-25T18:45:10.325Z,101776.00
2023-01-25T18:47:43.373Z,101769.69
2023-01-25T18:50:17.011Z,101755.03
2023-01-25T18:52:49.774Z,101751.45
2023-01-25T18:55:23.566Z,101753.07
2023-01-25T18:57:57.595Z,101751.55
2023-01-25T19:00:31.198Z,101751.55
2023-01-25T19:03:04.642Z,101743.68
2023-01-25T19:05:38.088Z,101739.59
2023-01-25T19:08:10.856Z,101745.04
2023-01-25T19:10:43.742Z,101735.98
2023-01-25T19:13:17.080Z,101730.81
2023-01-25T19:15:49.993Z,101723.77
2023-01-25T19:18:23.054Z,101719.48
2023-01-25T19:20:56.012Z,101715.25
2023-01-25T19:23:33.283Z,101718.90
2023-01-25T19:26:07.167Z,101716.91
2023-01-25T19:28:40.387Z,101715.64
2023-01-25T19:31:15.021Z,101712.32
2023-01-25T19:33:48.750Z,101717.61
2023-01-25T19:36:21.761Z,101719.20
2023-01-25T19:38:55.437Z,101720.48
2023-01-25T19:41:31.152Z,101713.36
2023-01-25T19:44:04.817Z,101709.23
2023-01-25T19:46:38.933Z,101712.04
2023-01-25T19:49:15.161Z,101705.70
2023-01-25T19:51:53.048Z,101709.66
2023-01-25T19:54:27.191Z,101703.86
2023-01-25T19:57:00.651Z,101699.08
2023-01-25T19:59:35.163Z,101702.58
2023-01-25T20:02:10.529Z,101697.01
2023-01-25T20:04:44.798Z,101696.76
2023-01-25T20:07:17.929Z,101690.42
2023-01-25T20:09:52.200Z,101686.22
2023-01-25T20:12:26.975Z,101684.42
2023-01-25T20:14:58.575Z,101692.30
2023-01-25T20:17:34.145Z,101687.41
2023-01-25T20:20:08.697Z,101682.92
2023-01-25T20:22:41.761Z,101679.95
2023-01-25T20:25:14.733Z,101675.38
2023-01-25T20:27:47.795Z,101669.41
2023-01-25T20:30:22.005Z,101664.39
2023-01-25T20:32:55.322Z,101662.92
2023-01-25T20:35:28.691Z,101665.52
2023-01-25T20:38:02.622Z,101660.56
2023-01-25T20:40:35.947Z,101656.60
2023-01-25T20:43:09.564Z,101653.92
2023-01-25T20:45:42.698Z,101645.54
2023-01-25T20:48:15.775Z,101649.39
2023-01-25T20:50:49.025Z,101640.45
2023-01-25T20:53:21.834Z,101635.30
2023-01-25T20:56:00.090Z,101610.15
2023-01-25T20:58:33.544Z,101620.98
2023-01-25T21:01:11.394Z,101617.45
2023-01-25T21:03:46.343Z,101604.08
2023-01-25T21:06:20.314Z,101604.35
2023-01-25T21:08:54.005Z,101617.69
2023-01-25T21:11:27.203Z,101614.15
2023-01-25T21:13:59.779Z,101616.20
2023-01-25T21:16:34.356Z,101614.85
2023-01-25T21:19:10.302Z,101611.61
2023-01-25T21:21:45.131Z,101604.66
2023-01-25T21:24:18.278Z,101599.54
2023-01-25T21:26:51.797Z,101597.14
2023-01-25T21:29:25.553Z,101596.49
2023-01-25T21:31:59.838Z,101592.86
2023-01-25T21:34:34.881Z,101586.20
2023-01-25T21:37:08.652Z,101582.09
2023-01-25T21:39:42.828Z,101565.20
2023-01-25T21:42:16.214Z,101576.06
2023-01-25T21:45:06.707Z,101553.81
2023-01-25T21:47:39.405Z,101564.88
2023-01-25T21:50:31.141Z,101564.16
2023-01-25T21:53:03.548Z,101561.02
2023-01-25T21:55:36.012Z,101557.35
2023-01-25T21:58:08.785Z,101560.95
2023-01-25T22:00:41.166Z,101558.20
2023-01-25T22:03:13.816Z,101561.05
2023-01-25T22:05:46.722Z,101562.67
2023-01-25T22:08:20.274Z,101558.33
2023-01-25T22:10:52.831Z,101560.04
2023-01-25T22:13:25.277Z,101561.42
2023-01-25T22:16:01.275Z,101559.20
2023-01-25T22:18:36.437Z,101563.31
2023-01-25T22:21:15.218Z,101563.44
2023-01-25T22:23:48.262Z,101562.85
2023-01-25T22:26:22.426Z,101555.04
2023-01-25T22:28:56.404Z,101560.50
2023-01-25T22:31:30.478Z,101560.48
2023-01-25T22:34:03.506Z,101552.84
2023-01-25T22:36:36.152Z,101555.75
2023-01-25T22:39:09.076Z,101554.07
2023-01-25T22:41:42.333Z,101553.73
2023-01-25T22:44:14.849Z,101555.80
2023-01-25T22:46:48.275Z,101553.44
2023-01-25T22:49:20.897Z,101548.84
2023-01-25T22:51:53.235Z,101548.07
2023-01-25T22:54:25.689Z,101547.13
2023-01-25T22:56:59.022Z,101540.84
2023-01-25T22:59:31.460Z,101541.55
2023-01-25T23:02:04.559Z,101533.83
2023-01-25T23:04:37.491Z,101528.26
2023-01-25T23:07:18.928Z,101527.83
2023-01-25T23:09:51.754Z,101525.26
2023-01-25T23:12:26.050Z,101523.13
2023-01-25T23:15:07.505Z,101516.79
2023-01-25T23:17:58.066Z,101518.65
2023-01-25T23:20:32.800Z,101515.08
2023-01-25T23:23:07.081Z,101514.72
2023-01-25T23:25:41.107Z,101510.46
2023-01-25T23:28:15.127Z,101513.46
2023-01-25T23:30:48.446Z,101506.09
2023-01-25T23:33:21.487Z,101487.03
2023-01-25T23:35:54.052Z,101497.59
2023-01-25T23:38:27.329Z,101487.84
2023-01-25T23:41:04.242Z,101483.02
2023-01-25T23:43:39.049Z,101478.56
2023-01-25T23:46:14.625Z,101478.32
2023-01-25T23:48:51.482Z,101473.11
2023-01-25T23:51:25.310Z,101469.40
2023-01-25T23:53:58.996Z,101467.52
2023-01-25T23:56:33.094Z,101472.23
2023-01-25T23:59:05.894Z,101464.40
